createdAt,value
2019-04-30T00:01:25.578Z,44.18
2019-04-30T00:03:59.672Z,43.70
2019-04-30T00:06:34.529Z,41.00
2019-04-30T00:09:01.894Z,43.90
2019-04-30T00:11:36.562Z,46.25
2019-04-30T00:14:07.810Z,45.00
2019-04-30T00:16:39.921Z,40.63
2019-04-30T00:19:14.834Z,43.73
2019-04-30T00:21:42.493Z,42.95
2019-04-30T00:24:15.754Z,43.58
2019-04-30T00:26:52.039Z,40.58
2019-04-30T00:29:26.539Z,42.13
2019-04-30T00:31:50.480Z,43.98
2019-04-30T00:34:20.748Z,45.60
2019-04-30T00:36:51.026Z,44.73
2019-04-30T00:39:21.312Z,48.17
2019-04-30T00:41:51.478Z,45.60
2019-04-30T00:44:26.847Z,43.75
2019-04-30T00:46:55.774Z,42.60
2019-04-30T00:49:26.673Z,40.85
2019-04-30T00:51:58.355Z,42.75
2019-04-30T00:54:30.841Z,39.08
2019-04-30T00:57:04.593Z,42.40
2019-04-30T00:59:35.067Z,41.40
2019-04-30T01:02:20.004Z,43.02
2019-04-30T01:04:52.561Z,42.03
2019-04-30T01:07:22.673Z,37.65
2019-04-30T01:09:52.843Z,38.78
2019-04-30T01:12:27.525Z,36.55
2019-04-30T01:14:54.854Z,36.45
2019-04-30T01:29:44.104Z,40.78
2019-04-30T01:32:17.371Z,36.50
2019-04-30T01:34:50.029Z,36.90
2019-04-30T01:37:20.329Z,40.25
2019-04-30T01:39:49.171Z,36.33
2019-04-30T01:42:19.644Z,38.73
2019-04-30T01:44:53.620Z,41.30
2019-04-30T01:47:27.818Z,39.25
2019-04-30T01:49:56.020Z,37.30
2019-04-30T01:52:29.204Z,37.20
2019-04-30T01:55:00.681Z,38.00
2019-04-30T01:57:40.123Z,34.48
2019-04-30T02:00:29.382Z,37.53
2019-04-30T02:02:59.753Z,39.33
2019-04-30T02:05:29.953Z,35.75
2019-04-30T02:08:01.303Z,36.10
2019-04-30T02:10:31.507Z,40.52
2019-04-30T02:13:01.644Z,36.83
2019-04-30T02:15:31.810Z,33.40
2019-04-30T02:18:02.717Z,35.78
2019-04-30T02:20:32.845Z,35.08
2019-04-30T02:23:03.059Z,38.05
2019-04-30T02:25:33.158Z,35.30
2019-04-30T02:28:03.312Z,35.00
2019-04-30T02:30:33.452Z,33.02
2019-04-30T02:33:03.898Z,33.05
2019-04-30T02:35:55.268Z,32.55
2019-04-30T02:38:30.040Z,31.17
2019-04-30T02:41:03.245Z,31.65
2019-04-30T02:43:35.190Z,32.75
2019-04-30T02:46:06.273Z,33.58
2019-04-30T02:48:39.856Z,35.83
2019-04-30T02:51:12.928Z,35.98
2019-04-30T02:54:16.034Z,36.58
2019-04-30T02:56:50.775Z,32.38
2019-04-30T02:59:21.913Z,32.00
2019-04-30T03:01:52.121Z,31.68
2019-04-30T03:04:22.296Z,30.10
2019-04-30T03:06:52.422Z,32.55
2019-04-30T03:09:22.577Z,30.17
2019-04-30T03:11:52.714Z,29.52
2019-04-30T03:14:23.837Z,34.08
2019-04-30T03:17:11.612Z,34.10
2019-04-30T03:20:06.059Z,31.37
2019-04-30T03:22:36.207Z,31.97
2019-04-30T03:25:06.445Z,33.20
2019-04-30T03:27:36.590Z,31.62
2019-04-30T03:30:11.657Z,33.90
2019-04-30T03:32:43.027Z,32.78
2019-04-30T03:35:12.767Z,34.80
2019-04-30T03:37:42.836Z,35.45
2019-04-30T03:40:13.432Z,36.13
2019-04-30T03:42:43.640Z,34.08
2019-04-30T03:45:13.865Z,37.45
2019-04-30T03:47:44.318Z,32.80
2019-04-30T03:50:14.454Z,34.30
2019-04-30T03:52:44.659Z,35.05
2019-04-30T03:55:14.751Z,35.33
2019-04-30T03:57:44.935Z,32.30
2019-04-30T04:00:20.361Z,28.83
2019-04-30T04:02:50.625Z,31.45
2019-04-30T04:05:26.331Z,33.05
2019-04-30T04:08:21.629Z,32.13
2019-04-30T04:11:20.103Z,31.12
2019-04-30T04:13:50.252Z,32.70
2019-04-30T04:16:20.534Z,34.00
2019-04-30T04:18:50.971Z,34.08
2019-04-30T04:21:21.126Z,35.23
2019-04-30T04:23:51.595Z,36.80
2019-04-30T04:26:21.760Z,33.78
2019-04-30T04:28:54.420Z,32.20
2019-04-30T04:31:29.876Z,30.43
2019-04-30T04:34:00.096Z,34.73
2019-04-30T04:36:30.566Z,29.25
2019-04-30T04:39:00.757Z,31.65
2019-04-30T04:41:34.943Z,32.20
2019-04-30T04:44:10.060Z,31.60
2019-04-30T04:46:41.499Z,31.57
2019-04-30T04:49:12.536Z,33.65
2019-04-30T04:51:42.730Z,32.50
2019-04-30T04:54:12.888Z,33.30
2019-04-30T04:56:44.218Z,31.10
2019-04-30T04:59:14.409Z,31.07
2019-04-30T05:01:44.559Z,31.93
2019-04-30T05:04:14.761Z,33.13
2019-04-30T05:06:44.968Z,32.85
2019-04-30T05:09:15.239Z,32.23
2019-04-30T05:11:48.759Z,33.95
2019-04-30T05:14:28.693Z,31.73
2019-04-30T05:17:00.102Z,31.17
2019-04-30T05:19:30.343Z,32.00
2019-04-30T05:22:00.488Z,30.95
2019-04-30T05:24:38.479Z,31.93
2019-04-30T05:27:12.623Z,30.68
2019-04-30T05:29:42.934Z,30.37
2019-04-30T05:32:13.160Z,31.27
2019-04-30T05:34:43.340Z,29.80
2019-04-30T05:37:13.503Z,33.25
2019-04-30T05:39:43.695Z,31.62
2019-04-30T05:42:13.858Z,29.80
2019-04-30T05:44:44.370Z,31.02
2019-04-30T05:47:14.535Z,34.25
2019-04-30T05:49:44.657Z,34.20
2019-04-30T05:52:15.149Z,32.17
2019-04-30T05:54:45.351Z,30.70
2019-04-30T05:57:17.215Z,31.90
2019-04-30T05:59:48.758Z,30.05
2019-04-30T06:02:20.368Z,28.05
2019-04-30T06:04:50.531Z,31.95
2019-04-30T06:07:20.884Z,31.33
2019-04-30T06:09:59.597Z,30.35
2019-04-30T06:12:45.929Z,28.12
2019-04-30T06:15:39.067Z,29.30
2019-04-30T06:18:13.427Z,28.87
2019-04-30T06:20:41.154Z,31.50
2019-04-30T06:23:11.319Z,33.13
2019-04-30T06:25:56.116Z,32.33
2019-04-30T06:28:15.581Z,33.08
2019-04-30T06:30:49.238Z,30.32
2019-04-30T06:33:19.779Z,31.95
2019-04-30T06:35:52.180Z,33.55
2019-04-30T06:38:22.399Z,31.45
2019-04-30T06:40:54.024Z,33.95
2019-04-30T06:43:25.975Z,31.95
2019-04-30T06:45:56.247Z,32.30
2019-04-30T06:48:29.504Z,32.00
2019-04-30T06:50:59.753Z,30.52
2019-04-30T06:53:29.876Z,30.25
2019-04-30T06:56:00.098Z,27.75
2019-04-30T06:58:30.237Z,28.90
2019-04-30T07:01:01.673Z,30.50
2019-04-30T07:03:31.751Z,27.85
2019-04-30T07:06:02.037Z,28.15
2019-04-30T07:08:55.663Z,26.77
2019-04-30T07:11:26.310Z,27.95
2019-04-30T07:14:02.087Z,29.35
2019-04-30T07:16:32.281Z,30.80
2019-04-30T07:19:02.723Z,29.12
2019-04-30T07:21:36.390Z,32.17
2019-04-30T07:24:05.177Z,31.48
2019-04-30T07:26:38.899Z,30.65
2019-04-30T07:29:11.274Z,30.92
2019-04-30T07:31:41.411Z,31.07
2019-04-30T07:34:13.039Z,30.12
2019-04-30T07:36:48.554Z,29.92
2019-04-30T07:39:15.009Z,30.20
2019-04-30T07:41:45.228Z,30.57
2019-04-30T07:44:30.085Z,29.37
2019-04-30T07:46:49.173Z,30.37
2019-04-30T07:49:20.595Z,29.95
2019-04-30T07:51:52.465Z,30.75
2019-04-30T07:54:23.063Z,30.45
2019-04-30T07:56:53.272Z,30.43
2019-04-30T07:59:23.425Z,31.52
2019-04-30T08:02:04.001Z,29.72
2019-04-30T08:04:43.077Z,28.83
2019-04-30T08:07:13.446Z,27.07
2019-04-30T08:09:43.806Z,27.20
2019-04-30T08:12:22.280Z,26.57
2019-04-30T08:14:45.986Z,24.72
2019-04-30T08:17:16.208Z,27.07
2019-04-30T08:19:46.418Z,24.27
2019-04-30T08:22:16.561Z,26.23
2019-04-30T08:24:49.185Z,26.48
2019-04-30T08:27:19.832Z,27.65
2019-04-30T08:29:50.155Z,28.83
2019-04-30T08:32:20.411Z,30.77
2019-04-30T08:34:50.630Z,32.15
2019-04-30T08:37:21.021Z,29.85
2019-04-30T08:39:51.166Z,33.28
2019-04-30T08:42:31.199Z,31.20
2019-04-30T08:44:53.192Z,30.52
2019-04-30T08:47:23.328Z,30.85
2019-04-30T08:49:56.448Z,32.45
2019-04-30T08:52:26.827Z,31.07
2019-04-30T08:54:57.070Z,29.30
2019-04-30T08:57:28.923Z,30.43
2019-04-30T09:00:01.004Z,28.62
2019-04-30T09:02:32.934Z,27.73
2019-04-30T09:05:07.171Z,27.20
2019-04-30T09:07:38.711Z,24.90
2019-04-30T09:10:10.330Z,27.70
2019-04-30T09:12:41.496Z,29.80
2019-04-30T09:15:12.072Z,26.10
2019-04-30T09:17:42.365Z,25.12
2019-04-30T09:20:12.588Z,25.52
2019-04-30T09:22:42.806Z,26.65
2019-04-30T09:25:13.208Z,26.57
2019-04-30T09:27:43.404Z,23.40
2019-04-30T09:30:13.588Z,23.50
2019-04-30T09:32:43.791Z,24.52
2019-04-30T09:35:14.494Z,26.23
2019-04-30T09:37:44.888Z,25.75
2019-04-30T09:40:18.606Z,31.93
2019-04-30T09:42:48.753Z,29.65
2019-04-30T09:45:18.993Z,29.30
2019-04-30T09:47:50.557Z,27.07
2019-04-30T09:50:21.952Z,26.75
2019-04-30T09:52:52.341Z,27.80
2019-04-30T09:55:22.439Z,29.75
2019-04-30T09:57:52.792Z,32.30
2019-04-30T10:00:23.056Z,32.50
2019-04-30T10:02:53.160Z,31.02
2019-04-30T10:05:23.421Z,34.70
2019-04-30T10:07:53.652Z,34.43
2019-04-30T10:10:28.967Z,32.17
2019-04-30T10:12:59.396Z,33.70
2019-04-30T10:15:43.620Z,33.83
2019-04-30T10:18:14.859Z,30.70
2019-04-30T10:20:45.582Z,33.45
2019-04-30T10:23:15.936Z,33.92
2019-04-30T10:25:47.268Z,35.13
2019-04-30T10:28:19.589Z,31.68
2019-04-30T10:30:49.570Z,35.48
2019-04-30T10:33:19.822Z,36.00
2019-04-30T10:35:51.432Z,37.67
2019-04-30T10:38:21.562Z,37.35
2019-04-30T10:40:51.721Z,34.98
2019-04-30T10:43:22.504Z,37.78
2019-04-30T10:45:55.045Z,35.92
2019-04-30T10:48:25.344Z,34.35
2019-04-30T10:50:59.232Z,31.45
2019-04-30T10:53:30.053Z,31.85
2019-04-30T10:56:00.691Z,32.35
2019-04-30T10:58:31.112Z,28.05
2019-04-30T11:01:01.946Z,30.20
2019-04-30T11:03:32.378Z,27.93
2019-04-30T11:06:02.666Z,29.72
2019-04-30T11:08:32.927Z,25.62
2019-04-30T11:11:03.114Z,25.82
2019-04-30T11:13:33.407Z,26.75
2019-04-30T11:16:12.557Z,25.32
2019-04-30T11:18:35.652Z,27.02
2019-04-30T11:21:06.424Z,26.02
2019-04-30T11:23:36.953Z,21.42
2019-04-30T11:26:09.476Z,23.32
2019-04-30T11:28:40.348Z,23.92
2019-04-30T11:31:28.305Z,22.82
2019-04-30T11:33:59.950Z,21.05
2019-04-30T11:36:30.235Z,22.00
2019-04-30T11:39:00.516Z,22.30
2019-04-30T11:41:33.330Z,21.52
2019-04-30T11:44:03.655Z,20.97
2019-04-30T11:47:16.337Z,20.72
2019-04-30T11:49:46.670Z,19.12
2019-04-30T11:52:16.884Z,21.57
2019-04-30T11:54:51.486Z,21.10
2019-04-30T11:57:21.435Z,19.02
2019-04-30T11:59:52.003Z,21.37
2019-04-30T12:02:41.623Z,17.80
2019-04-30T12:05:15.220Z,19.65
2019-04-30T12:07:54.893Z,19.60
2019-04-30T12:10:39.183Z,19.70
2019-04-30T12:13:26.431Z,18.73
2019-04-30T12:15:58.641Z,20.68
2019-04-30T12:18:28.551Z,18.82
2019-04-30T12:20:58.927Z,17.67
2019-04-30T12:23:29.229Z,19.35
2019-04-30T12:26:02.496Z,14.20
2019-04-30T12:28:31.331Z,18.37
2019-04-30T12:31:01.562Z,16.93
2019-04-30T12:33:31.741Z,18.17
2019-04-30T12:36:03.248Z,17.40
2019-04-30T12:38:33.467Z,17.20
2019-04-30T12:41:03.698Z,17.45
2019-04-30T12:43:33.958Z,15.28
2019-04-30T12:46:05.565Z,17.12
2019-04-30T12:48:46.321Z,17.30
2019-04-30T12:51:45.814Z,17.50
2019-04-30T12:54:23.255Z,19.25
2019-04-30T12:57:11.173Z,16.77
2019-04-30T12:59:41.512Z,18.82
2019-04-30T13:02:11.715Z,17.27
2019-04-30T13:04:44.803Z,18.92
2019-04-30T13:07:15.428Z,18.45
2019-04-30T13:09:46.364Z,18.10
2019-04-30T13:12:17.280Z,18.15
2019-04-30T13:14:52.294Z,19.12
2019-04-30T13:17:19.873Z,20.70
2019-04-30T13:19:50.072Z,19.75
2019-04-30T13:22:20.257Z,20.65
2019-04-30T13:24:50.587Z,19.37
2019-04-30T13:27:22.394Z,20.15
2019-04-30T13:30:02.263Z,19.75
2019-04-30T13:32:37.021Z,20.00
2019-04-30T13:35:09.197Z,19.42
2019-04-30T13:37:48.927Z,22.05
2019-04-30T13:40:31.808Z,20.70
2019-04-30T13:43:02.592Z,19.10
2019-04-30T13:45:34.230Z,19.87
2019-04-30T13:48:04.515Z,21.52
2019-04-30T13:50:34.838Z,22.20
2019-04-30T13:53:05.334Z,21.02
2019-04-30T13:55:43.663Z,20.10
2019-04-30T13:58:07.438Z,20.92
2019-04-30T14:00:39.548Z,21.77
2019-04-30T14:03:20.256Z,19.95
2019-04-30T14:05:51.572Z,21.60
2019-04-30T14:08:28.949Z,21.52
2019-04-30T14:10:59.432Z,20.62
2019-04-30T14:13:29.736Z,19.98
2019-04-30T14:15:59.899Z,20.92
2019-04-30T14:18:33.823Z,22.45
2019-04-30T14:21:05.102Z,20.57
2019-04-30T14:23:35.374Z,18.98
2019-04-30T14:26:05.659Z,18.95
2019-04-30T14:28:36.024Z,20.08
2019-04-30T14:31:06.436Z,20.00
2019-04-30T14:33:36.676Z,21.37
2019-04-30T14:36:08.747Z,18.17
2019-04-30T14:38:40.622Z,18.85
2019-04-30T14:41:12.787Z,18.87
2019-04-30T14:43:54.836Z,19.98
2019-04-30T14:46:44.948Z,19.10
2019-04-30T14:49:59.041Z,19.25
2019-04-30T14:52:19.307Z,19.75
2019-04-30T14:55:14.510Z,17.77
2019-04-30T14:58:20.401Z,17.17
2019-04-30T15:01:19.906Z,16.45
2019-04-30T15:03:50.606Z,17.37
2019-04-30T15:06:20.898Z,17.48
2019-04-30T15:08:51.296Z,14.95
2019-04-30T15:11:22.290Z,17.77
2019-04-30T15:13:54.015Z,17.17
2019-04-30T15:16:24.967Z,15.45
2019-04-30T15:19:01.946Z,15.78
2019-04-30T15:21:34.750Z,15.23
2019-04-30T15:24:19.847Z,15.85
2019-04-30T15:26:57.871Z,16.12
2019-04-30T15:29:23.943Z,14.95
2019-04-30T15:31:54.952Z,15.65
2019-04-30T15:34:29.217Z,14.33
2019-04-30T15:37:00.208Z,15.23
2019-04-30T15:39:34.377Z,13.62
2019-04-30T15:42:09.872Z,13.68
2019-04-30T15:44:42.651Z,14.90
2019-04-30T15:47:12.641Z,14.63
2019-04-30T15:49:46.449Z,15.75
2019-04-30T15:52:19.873Z,13.43
2019-04-30T15:55:03.737Z,16.02
2019-04-30T15:57:59.267Z,14.55
2019-04-30T16:00:31.501Z,13.58
2019-04-30T16:03:12.601Z,15.15
2019-04-30T16:05:54.671Z,15.40
2019-04-30T16:08:39.145Z,14.45
2019-04-30T16:11:46.955Z,13.88
2019-04-30T16:14:29.517Z,13.90
2019-04-30T16:17:13.050Z,14.98
2019-04-30T16:19:44.826Z,14.15
2019-04-30T16:22:15.071Z,13.45
2019-04-30T16:24:45.957Z,13.10
2019-04-30T16:27:22.195Z,15.13
2019-04-30T16:29:54.113Z,14.85
2019-04-30T16:32:24.440Z,14.93
2019-04-30T16:34:54.726Z,14.65
2019-04-30T16:37:25.080Z,13.50
2019-04-30T16:39:55.216Z,13.13
2019-04-30T16:42:25.604Z,12.88
2019-04-30T16:44:56.705Z,12.98
2019-04-30T16:47:27.270Z,13.30
2019-04-30T16:49:58.883Z,11.80
2019-04-30T16:52:29.485Z,10.82
2019-04-30T16:55:00.232Z,11.55
2019-04-30T16:57:30.491Z,11.55
2019-04-30T17:00:00.752Z,12.25
2019-04-30T17:02:32.599Z,11.30
2019-04-30T17:05:11.342Z,12.28
2019-04-30T17:08:15.831Z,10.43
2019-04-30T17:10:58.827Z,11.50
2019-04-30T17:13:59.928Z,11.45
2019-04-30T17:16:30.320Z,10.75
2019-04-30T17:19:00.521Z,10.80
2019-04-30T17:21:30.767Z,11.78
2019-04-30T17:24:00.990Z,8.98
2019-04-30T17:26:31.248Z,9.88
2019-04-30T17:29:01.505Z,10.82
2019-04-30T17:31:31.716Z,9.98
2019-04-30T17:34:02.982Z,9.28
2019-04-30T17:36:33.145Z,9.78
2019-04-30T17:39:13.145Z,8.93
2019-04-30T17:41:44.182Z,9.70
2019-04-30T17:44:14.523Z,8.73
2019-04-30T17:46:45.908Z,9.85
2019-04-30T17:49:16.113Z,9.53
2019-04-30T17:51:46.361Z,9.70
2019-04-30T17:54:16.625Z,8.53
2019-04-30T17:56:52.786Z,9.15
2019-04-30T17:59:23.136Z,9.68
2019-04-30T18:02:04.983Z,9.90
2019-04-30T18:04:35.429Z,8.28
2019-04-30T18:07:05.712Z,8.95
2019-04-30T18:09:35.955Z,7.80
2019-04-30T18:12:09.370Z,6.28
2019-04-30T18:14:44.548Z,8.83
2019-04-30T18:17:15.074Z,7.10
2019-04-30T18:20:09.030Z,5.78
2019-04-30T18:23:07.463Z,5.70
2019-04-30T18:25:45.560Z,5.60
2019-04-30T18:28:16.164Z,6.65
2019-04-30T18:30:49.067Z,5.33
2019-04-30T18:33:19.283Z,5.90
2019-04-30T18:35:49.898Z,5.78
2019-04-30T18:38:20.581Z,5.00
2019-04-30T18:40:54.201Z,4.35
2019-04-30T18:43:28.755Z,4.67
2019-04-30T18:46:00.694Z,5.58
2019-04-30T18:48:31.428Z,5.60
2019-04-30T18:51:15.977Z,4.90
2019-04-30T18:53:36.396Z,4.85
2019-04-30T18:56:12.196Z,4.15
2019-04-30T18:58:42.246Z,4.50
2019-04-30T19:01:11.650Z,5.12
2019-04-30T19:03:42.043Z,4.65
2019-04-30T19:06:26.181Z,4.70
2019-04-30T19:09:29.678Z,4.62
2019-04-30T19:12:22.219Z,4.28
2019-04-30T19:15:11.448Z,4.65
2019-04-30T19:18:00.610Z,3.37
2019-04-30T19:20:38.661Z,4.35
2019-04-30T19:23:10.153Z,4.78
2019-04-30T19:25:42.006Z,5.47
2019-04-30T19:28:14.608Z,5.58
2019-04-30T19:31:01.132Z,5.20
2019-04-30T19:33:32.874Z,5.28
2019-04-30T19:36:09.818Z,5.28
2019-04-30T19:39:20.642Z,5.75
2019-04-30T19:41:50.907Z,5.78
2019-04-30T19:44:23.809Z,5.37
2019-04-30T19:46:53.930Z,4.83
2019-04-30T19:49:24.026Z,4.72
2019-04-30T19:52:07.549Z,4.53
2019-04-30T19:54:29.331Z,4.78
2019-04-30T19:57:00.852Z,5.35
2019-04-30T19:59:30.921Z,5.53
2019-04-30T20:02:02.186Z,4.75
2019-04-30T20:04:36.377Z,5.05
2019-04-30T20:07:05.887Z,5.45
2019-04-30T20:09:37.105Z,6.35
2019-04-30T20:12:07.250Z,6.80
2019-04-30T20:14:39.094Z,5.95
2019-04-30T20:17:09.350Z,6.90
2019-04-30T20:19:41.419Z,5.90
2019-04-30T20:22:15.012Z,5.72
2019-04-30T20:24:45.296Z,6.58
2019-04-30T20:27:15.440Z,5.85
2019-04-30T20:29:45.584Z,7.60
2019-04-30T20:32:15.749Z,8.35
2019-04-30T20:34:48.935Z,9.73
2019-04-30T20:37:19.634Z,9.88
2019-04-30T20:39:55.224Z,10.48
2019-04-30T20:42:25.484Z,11.35
2019-04-30T20:44:55.723Z,11.38
2019-04-30T20:47:25.943Z,12.00
2019-04-30T20:49:57.921Z,13.85
2019-04-30T20:52:32.095Z,13.62
2019-04-30T20:55:02.958Z,13.48
2019-04-30T20:57:33.285Z,12.70
2019-04-30T21:00:03.558Z,12.58
2019-04-30T21:02:35.422Z,14.87
2019-04-30T21:05:09.381Z,15.30
2019-04-30T21:07:43.474Z,15.60
2019-04-30T21:10:19.952Z,16.00
2019-04-30T21:12:49.962Z,18.75
2019-04-30T21:15:20.112Z,17.67
2019-04-30T21:17:50.528Z,19.95
2019-04-30T21:20:22.485Z,18.40
2019-04-30T21:22:59.628Z,18.25
2019-04-30T21:25:30.079Z,19.25
2019-04-30T21:28:00.285Z,18.82
2019-04-30T21:30:30.602Z,18.07
2019-04-30T21:33:25.880Z,19.20
2019-04-30T21:36:04.424Z,19.40
2019-04-30T21:38:38.939Z,18.67
2019-04-30T21:41:09.948Z,19.30
2019-04-30T21:43:40.287Z,18.67
2019-04-30T21:46:11.582Z,18.85
2019-04-30T21:48:44.126Z,17.67
2019-04-30T21:51:14.295Z,20.48
2019-04-30T21:53:50.418Z,19.30
2019-04-30T21:56:21.744Z,20.30
2019-04-30T21:58:51.891Z,22.30
2019-04-30T22:01:25.903Z,23.00
2019-04-30T22:03:56.888Z,22.73
2019-04-30T22:06:29.431Z,23.87
2019-04-30T22:08:59.269Z,23.00
2019-04-30T22:11:31.196Z,25.85
2019-04-30T22:14:01.400Z,25.75
2019-04-30T22:16:31.798Z,23.20
2019-04-30T22:19:04.583Z,24.00
2019-04-30T22:21:35.002Z,24.90
2019-04-30T22:24:05.395Z,25.60
2019-04-30T22:26:35.629Z,25.75
2019-04-30T22:29:05.928Z,28.15
2019-04-30T22:31:36.156Z,29.00
2019-04-30T22:34:06.339Z,30.08
2019-04-30T22:36:41.142Z,34.10
2019-04-30T22:39:45.363Z,34.23
2019-04-30T22:42:36.353Z,31.70
2019-04-30T22:45:10.463Z,36.48
2019-04-30T22:47:40.667Z,35.58
2019-04-30T22:50:10.968Z,35.63
2019-04-30T22:52:41.203Z,37.08
2019-04-30T22:55:11.489Z,36.73
2019-04-30T22:57:41.670Z,38.45
2019-04-30T23:00:17.321Z,36.10
2019-04-30T23:02:57.476Z,38.95
2019-04-30T23:05:27.814Z,37.35
2019-04-30T23:07:58.034Z,37.53
2019-04-30T23:10:28.213Z,33.67
2019-04-30T23:13:01.488Z,35.85
2019-04-30T23:15:31.682Z,37.70
2019-04-30T23:18:05.035Z,38.20
2019-04-30T23:20:35.270Z,39.05
2019-04-30T23:23:05.446Z,38.45
2019-04-30T23:25:35.623Z,40.98
2019-04-30T23:28:05.831Z,35.63
2019-04-30T23:30:36.022Z,37.65
2019-04-30T23:33:06.235Z,37.95
2019-04-30T23:35:36.493Z,35.45
2019-04-30T23:38:06.735Z,39.13
2019-04-30T23:40:49.526Z,38.78
2019-04-30T23:43:20.386Z,36.95
2019-04-30T23:45:50.558Z,36.13
2019-04-30T23:48:21.899Z,38.20
2019-04-30T23:50:55.039Z,36.95
2019-04-30T23:53:25.211Z,38.25
2019-04-30T23:55:55.464Z,36.80
2019-04-30T23:58:25.688Z,38.75
